createdAt,value
2017-03-26T00:00:05.109Z,1028.5
2017-03-26T00:01:26.975Z,1028.5
2017-03-26T00:02:48.799Z,1028.51
2017-03-26T00:04:10.016Z,1028.44
2017-03-26T00:05:31.823Z,1028.43
2017-03-26T00:06:54.319Z,1028.43
2017-03-26T00:08:16.475Z,1028.42
2017-03-26T00:09:38.313Z,1028.38
2017-03-26T00:11:00.553Z,1028.46
2017-03-26T00:12:22.365Z,1028.43
2017-03-26T00:13:43.567Z,1028.44
2017-03-26T00:15:05.384Z,1028.47
2017-03-26T00:16:27.416Z,1028.41
2017-03-26T00:17:48.924Z,1028.39
2017-03-26T00:19:11.057Z,1028.41
2017-03-26T00:20:32.745Z,1028.36
2017-03-26T00:21:55.495Z,1028.32
2017-03-26T00:23:17.917Z,1028.33
2017-03-26T00:24:39.734Z,1028.34
2017-03-26T00:26:00.913Z,1028.31
2017-03-26T00:27:22.963Z,1028.29
2017-03-26T00:28:44.776Z,1028.32
2017-03-26T00:30:06.396Z,1028.34
2017-03-26T00:31:28.365Z,1028.35
2017-03-26T00:32:50.175Z,1028.37
2017-03-26T00:34:12.329Z,1028.33
2017-03-26T00:35:34.165Z,1028.32
2017-03-26T00:36:55.382Z,1028.31
2017-03-26T00:38:17.504Z,1028.28
2017-03-26T00:39:39.328Z,1028.31
2017-03-26T00:41:00.830Z,1028.28
2017-03-26T00:42:22.966Z,1028.34
2017-03-26T00:43:45.447Z,1028.31
2017-03-26T00:45:07.595Z,1028.21
2017-03-26T00:46:29.744Z,1028.16
2017-03-26T00:47:51.905Z,1028.21
2017-03-26T00:49:14.707Z,1028.16
2017-03-26T00:50:36.598Z,1028.17
2017-03-26T00:51:58.435Z,1028.13
2017-03-26T00:53:20.574Z,1028.09
2017-03-26T00:54:42.516Z,1028.07
2017-03-26T00:56:04.010Z,1028.12
2017-03-26T00:57:26.253Z,1028.09
2017-03-26T00:58:48.155Z,1028.09
2017-03-26T01:00:10.293Z,1028.14
2017-03-26T01:01:31.616Z,1028.13
2017-03-26T01:02:53.228Z,1028.1
2017-03-26T01:04:15.116Z,1028.08
2017-03-26T01:05:37.246Z,1028.11
2017-03-26T01:06:59.750Z,1028.09
2017-03-26T01:08:22.208Z,1028.03
2017-03-26T01:09:44.338Z,1028.1
2017-03-26T01:11:06.457Z,1028.04
2017-03-26T01:12:28.100Z,1028
2017-03-26T01:13:50.238Z,1028.06
2017-03-26T01:15:12.414Z,1028.09
2017-03-26T01:16:35.225Z,1028.05
2017-03-26T01:17:56.715Z,1028.01
2017-03-26T01:19:18.611Z,1028.04
2017-03-26T01:20:40.152Z,1028.03
2017-03-26T01:22:02.209Z,1028.05
2017-03-26T01:23:24.027Z,1028.02
2017-03-26T01:24:45.926Z,1028.02
2017-03-26T01:26:07.797Z,1028.01
2017-03-26T01:27:29.890Z,1027.96
2017-03-26T01:28:50.806Z,1027.96
2017-03-26T01:30:12.315Z,1028
2017-03-26T01:31:34.105Z,1028.02
2017-03-26T01:32:56.984Z,1028.01
2017-03-26T01:34:18.843Z,1027.95
2017-03-26T01:35:40.106Z,1027.94
2017-03-26T01:37:01.603Z,1027.9
2017-03-26T01:38:23.740Z,1027.91
2017-03-26T01:39:46.192Z,1027.94
2017-03-26T01:41:08.316Z,1027.9
2017-03-26T01:42:30.138Z,1027.93
2017-03-26T01:43:52.585Z,1027.89
2017-03-26T01:45:14.458Z,1027.84
2017-03-26T01:46:36.287Z,1027.75
2017-03-26T01:47:58.431Z,1027.79
2017-03-26T01:49:21.324Z,1027.81
2017-03-26T01:50:42.605Z,1027.79
2017-03-26T01:52:05.057Z,1027.82
2017-03-26T01:53:26.926Z,1027.8
2017-03-26T01:54:49.453Z,1027.85
2017-03-26T01:56:11.597Z,1027.83
2017-03-26T01:57:33.716Z,1027.91
2017-03-26T01:58:55.530Z,1027.91
2017-03-26T02:00:18.267Z,1027.94
2017-03-26T02:01:40.051Z,1027.91
2017-03-26T02:03:01.543Z,1027.88
2017-03-26T02:04:23.996Z,1027.89
2017-03-26T02:05:47.565Z,1027.91
2017-03-26T02:07:09.069Z,1027.93
2017-03-26T02:08:31.204Z,1027.97
2017-03-26T02:09:52.804Z,1027.95
2017-03-26T02:11:14.784Z,1027.97
2017-03-26T02:12:36.676Z,1028.01
2017-03-26T02:13:58.824Z,1027.98
2017-03-26T02:15:20.007Z,1027.92
2017-03-26T02:16:42.442Z,1027.87
2017-03-26T02:18:04.266Z,1027.91
2017-03-26T02:19:26.477Z,1027.9
2017-03-26T02:20:48.844Z,1027.89
2017-03-26T02:22:10.633Z,1027.85
2017-03-26T02:23:32.428Z,1027.87
2017-03-26T02:24:54.567Z,1027.79
2017-03-26T02:26:16.716Z,1027.81
2017-03-26T02:27:38.847Z,1027.81
2017-03-26T02:29:00.668Z,1027.81
2017-03-26T02:30:22.806Z,1027.83
2017-03-26T02:31:44.359Z,1027.84
2017-03-26T02:33:06.613Z,1027.83
2017-03-26T02:34:28.414Z,1027.83
2017-03-26T02:35:50.241Z,1027.78
2017-03-26T02:37:12.079Z,1027.78
2017-03-26T02:38:33.824Z,1027.84
2017-03-26T02:39:55.640Z,1027.82
2017-03-26T02:41:17.487Z,1027.88
2017-03-26T02:42:38.986Z,1027.83
2017-03-26T02:44:01.471Z,1027.86
2017-03-26T02:45:23.297Z,1027.8
2017-03-26T02:46:45.151Z,1027.86
2017-03-26T02:48:07.303Z,1027.88
2017-03-26T02:49:29.159Z,1027.92
2017-03-26T02:50:50.323Z,1027.92
2017-03-26T02:52:12.268Z,1027.94
2017-03-26T02:53:33.774Z,1027.95
2017-03-26T02:54:56.003Z,1027.98
2017-03-26T02:56:17.807Z,1027.96
2017-03-26T02:57:39.614Z,1027.96
2017-03-26T02:59:01.783Z,1027.96
2017-03-26T03:00:24.335Z,1028
2017-03-26T03:01:46.760Z,1028
2017-03-26T03:03:09.237Z,1028.01
2017-03-26T03:04:31.064Z,1028
2017-03-26T03:05:53.219Z,1027.97
2017-03-26T03:07:14.468Z,1027.98
2017-03-26T03:08:36.698Z,1027.97
2017-03-26T03:09:58.207Z,1027.93
2017-03-26T03:11:20.017Z,1027.87
2017-03-26T03:12:42.145Z,1027.86
2017-03-26T03:14:03.676Z,1027.83
2017-03-26T03:15:25.184Z,1027.77
2017-03-26T03:16:46.633Z,1027.81
2017-03-26T03:18:08.131Z,1027.79
2017-03-26T03:19:29.319Z,1027.87
2017-03-26T03:20:51.115Z,1027.83
2017-03-26T03:22:12.635Z,1027.8
2017-03-26T03:23:34.802Z,1027.77
2017-03-26T03:24:56.645Z,1027.76
2017-03-26T03:26:18.755Z,1027.75
2017-03-26T03:27:40.937Z,1027.78
2017-03-26T03:29:02.505Z,1027.69
2017-03-26T03:30:24.376Z,1027.72
2017-03-26T03:31:46.522Z,1027.71
2017-03-26T03:33:09.287Z,1027.7
2017-03-26T03:34:31.421Z,1027.71
2017-03-26T03:35:53.254Z,1027.66
2017-03-26T03:37:15.358Z,1027.57
2017-03-26T03:38:36.913Z,1027.55
2017-03-26T03:39:58.849Z,1027.55
2017-03-26T03:41:21.304Z,1027.53
2017-03-26T03:42:43.437Z,1027.51
2017-03-26T03:44:05.928Z,1027.52
2017-03-26T03:45:28.076Z,1027.52
2017-03-26T03:46:49.585Z,1027.59
2017-03-26T03:48:11.440Z,1027.59
2017-03-26T03:49:33.349Z,1027.6
2017-03-26T03:50:55.472Z,1027.64
2017-03-26T03:52:16.996Z,1027.67
2017-03-26T03:53:38.863Z,1027.68
2017-03-26T03:55:01.089Z,1027.64
2017-03-26T03:56:23.215Z,1027.68
2017-03-26T03:57:45.637Z,1027.74
2017-03-26T03:59:07.773Z,1027.73
2017-03-26T04:00:30.275Z,1027.76
2017-03-26T04:01:52.416Z,1027.78
2017-03-26T04:03:14.339Z,1027.78
2017-03-26T04:04:35.673Z,1027.74
2017-03-26T04:05:58.104Z,1027.76
2017-03-26T04:07:20.614Z,1027.82
2017-03-26T04:08:42.128Z,1027.77
2017-03-26T04:10:03.645Z,1027.76
2017-03-26T04:11:26.135Z,1027.73
2017-03-26T04:12:47.964Z,1027.65
2017-03-26T04:14:09.571Z,1027.65
2017-03-26T04:15:31.697Z,1027.63
2017-03-26T04:16:53.819Z,1027.61
2017-03-26T04:18:14.995Z,1027.66
2017-03-26T04:19:37.135Z,1027.67
2017-03-26T04:20:59.295Z,1027.65
2017-03-26T04:22:21.816Z,1027.68
2017-03-26T04:23:42.842Z,1027.69
2017-03-26T04:25:04.670Z,1027.72
2017-03-26T04:26:26.800Z,1027.73
2017-03-26T04:27:49.293Z,1027.73
2017-03-26T04:29:11.758Z,1027.77
2017-03-26T04:30:33.904Z,1027.78
2017-03-26T04:31:55.763Z,1027.74
2017-03-26T04:33:18.478Z,1027.73
2017-03-26T04:34:40.916Z,1027.72
2017-03-26T04:36:02.752Z,1027.72
2017-03-26T04:37:24.884Z,1027.69
2017-03-26T04:38:46.680Z,1027.68
2017-03-26T04:40:08.505Z,1027.74
2017-03-26T04:41:30.449Z,1027.7
2017-03-26T04:42:52.274Z,1027.76
2017-03-26T04:44:14.835Z,1027.71
2017-03-26T04:45:36.981Z,1027.63
2017-03-26T04:48:20.444Z,1027.61
2017-03-26T04:49:42.573Z,1027.61
2017-03-26T04:51:04.131Z,1027.58
2017-03-26T04:52:25.628Z,1027.62
2017-03-26T04:53:46.816Z,1027.63
2017-03-26T04:55:08.956Z,1027.56
2017-03-26T04:56:30.785Z,1027.59
2017-03-26T04:57:52.106Z,1027.55
2017-03-26T04:59:13.606Z,1027.57
2017-03-26T05:00:36.031Z,1027.52
2017-03-26T05:01:57.824Z,1027.52
2017-03-26T05:03:19.943Z,1027.53
2017-03-26T05:04:41.772Z,1027.55
2017-03-26T05:06:03.606Z,1027.53
2017-03-26T05:07:25.412Z,1027.55
2017-03-26T05:08:46.924Z,1027.56
2017-03-26T05:10:08.741Z,1027.6
2017-03-26T05:11:31.234Z,1027.62
2017-03-26T05:12:53.654Z,1027.6
2017-03-26T05:14:15.299Z,1027.57
2017-03-26T05:15:37.106Z,1027.55
2017-03-26T05:16:59.360Z,1027.58
2017-03-26T05:18:21.233Z,1027.57
2017-03-26T05:19:43.040Z,1027.51
2017-03-26T05:21:05.182Z,1027.53
2017-03-26T05:22:27.381Z,1027.52
2017-03-26T05:23:48.878Z,1027.51
2017-03-26T05:25:10.783Z,1027.47
2017-03-26T05:26:31.968Z,1027.48
2017-03-26T05:27:54.455Z,1027.47
2017-03-26T05:29:16.278Z,1027.51
2017-03-26T05:30:38.406Z,1027.51
2017-03-26T05:32:00.202Z,1027.54
2017-03-26T05:33:22.377Z,1027.61
2017-03-26T05:34:44.572Z,1027.64
2017-03-26T05:36:07.063Z,1027.65
2017-03-26T05:37:28.874Z,1027.69
2017-03-26T05:38:50.702Z,1027.75
2017-03-26T05:40:12.898Z,1027.66
2017-03-26T05:41:34.401Z,1027.75
2017-03-26T05:42:56.216Z,1027.76
2017-03-26T05:44:18.405Z,1027.76
2017-03-26T05:45:40.635Z,1027.76
2017-03-26T05:47:02.517Z,1027.81
2017-03-26T05:48:24.430Z,1027.82
2017-03-26T05:49:46.575Z,1027.82
2017-03-26T05:51:08.165Z,1027.8
2017-03-26T05:52:29.968Z,1027.76
2017-03-26T05:53:51.773Z,1027.77
2017-03-26T05:55:14.554Z,1027.74
2017-03-26T05:56:36.064Z,1027.72
2017-03-26T05:57:58.207Z,1027.81
2017-03-26T05:59:20.494Z,1027.83
2017-03-26T06:00:42.356Z,1027.86
2017-03-26T06:02:04.505Z,1027.86
2017-03-26T06:03:26.368Z,1027.85
2017-03-26T06:04:47.951Z,1027.84
2017-03-26T06:06:09.791Z,1027.87
2017-03-26T06:07:31.716Z,1027.87
2017-03-26T06:08:53.539Z,1027.85
2017-03-26T06:10:15.668Z,1027.92
2017-03-26T06:11:37.780Z,1027.91
2017-03-26T06:12:59.103Z,1027.89
2017-03-26T06:14:21.021Z,1027.88
2017-03-26T06:15:42.855Z,1027.92
2017-03-26T06:17:04.976Z,1027.93
2017-03-26T06:18:27.435Z,1027.94
2017-03-26T06:19:49.287Z,1027.94
2017-03-26T06:21:10.482Z,1027.97
2017-03-26T06:22:32.583Z,1027.96
2017-03-26T06:23:54.413Z,1027.94
2017-03-26T06:25:15.934Z,1027.93
2017-03-26T06:26:37.823Z,1027.94
2017-03-26T06:27:59.902Z,1027.96
2017-03-26T06:29:21.246Z,1027.98
2017-03-26T06:30:43.705Z,1028.04
2017-03-26T06:32:05.523Z,1028
2017-03-26T06:33:28.275Z,1028.01
2017-03-26T06:34:49.854Z,1028.07
2017-03-26T06:36:12.083Z,1028.09
2017-03-26T06:37:33.256Z,1028.08
2017-03-26T06:38:55.077Z,1028.13
2017-03-26T06:40:17.033Z,1028.12
2017-03-26T06:41:38.872Z,1028.1
2017-03-26T06:43:00.367Z,1028.17
2017-03-26T06:44:22.455Z,1028.18
2017-03-26T06:45:44.607Z,1028.21
2017-03-26T06:47:06.455Z,1028.22
2017-03-26T06:48:28.517Z,1028.26
2017-03-26T06:49:50.903Z,1028.29
2017-03-26T06:51:12.421Z,1028.27
2017-03-26T06:52:34.265Z,1028.29
2017-03-26T06:53:56.406Z,1028.31
2017-03-26T06:55:18.589Z,1028.29
2017-03-26T06:56:41.115Z,1028.36
2017-03-26T06:58:02.696Z,1028.36
2017-03-26T06:59:24.831Z,1028.39
2017-03-26T07:00:46.840Z,1028.38
2017-03-26T07:02:08.674Z,1028.37
2017-03-26T07:03:30.820Z,1028.35
2017-03-26T07:04:52.328Z,1028.39
2017-03-26T07:06:14.146Z,1028.44
2017-03-26T07:07:36.394Z,1028.42
2017-03-26T07:08:57.981Z,1028.43
2017-03-26T07:10:20.171Z,1028.44
2017-03-26T07:11:42.613Z,1028.42
2017-03-26T07:13:04.463Z,1028.4
2017-03-26T07:14:26.614Z,1028.44
2017-03-26T07:15:48.446Z,1028.41
2017-03-26T07:17:11.326Z,1028.42
2017-03-26T07:18:33.403Z,1028.45
2017-03-26T07:19:55.897Z,1028.48
2017-03-26T07:21:17.771Z,1028.55
2017-03-26T07:22:39.886Z,1028.54
2017-03-26T07:24:01.719Z,1028.57
2017-03-26T07:25:23.557Z,1028.56
2017-03-26T07:26:46.239Z,1028.59
2017-03-26T07:28:08.665Z,1028.63
2017-03-26T07:29:30.818Z,1028.65
2017-03-26T07:30:53.273Z,1028.59
2017-03-26T07:32:15.121Z,1028.62
2017-03-26T07:33:36.674Z,1028.57
2017-03-26T07:34:58.817Z,1028.61
2017-03-26T07:36:20.635Z,1028.61
2017-03-26T07:37:42.352Z,1028.63
2017-03-26T07:39:04.743Z,1028.63
2017-03-26T07:40:26.557Z,1028.62
2017-03-26T07:41:48.728Z,1028.6
2017-03-26T07:43:10.542Z,1028.63
2017-03-26T07:44:32.604Z,1028.61
2017-03-26T07:45:54.204Z,1028.71
2017-03-26T07:47:16.044Z,1028.67
2017-03-26T07:48:38.228Z,1028.68
2017-03-26T07:50:00.708Z,1028.69
2017-03-26T07:51:22.236Z,1028.73
2017-03-26T07:52:44.684Z,1028.71
2017-03-26T07:54:06.394Z,1028.81
2017-03-26T07:55:27.707Z,1028.81
2017-03-26T07:56:49.594Z,1028.79
2017-03-26T07:58:12.043Z,1028.8
2017-03-26T07:59:33.861Z,1028.81
2017-03-26T08:00:55.987Z,1028.78
2017-03-26T08:02:17.206Z,1028.72
2017-03-26T08:03:39.361Z,1028.75
2017-03-26T08:05:01.395Z,1028.79
2017-03-26T08:06:23.516Z,1028.8
2017-03-26T08:07:45.646Z,1028.81
2017-03-26T08:09:07.913Z,1028.78
2017-03-26T08:10:36.149Z,1028.79
2017-03-26T08:11:59.017Z,1028.78
2017-03-26T08:13:21.161Z,1028.79
2017-03-26T08:14:42.362Z,1028.76
2017-03-26T08:16:04.489Z,1028.75
2017-03-26T08:17:26.896Z,1028.76
2017-03-26T08:18:49.358Z,1028.75
2017-03-26T08:20:11.484Z,1028.68
2017-03-26T08:21:33.819Z,1028.65
2017-03-26T08:22:56.263Z,1028.69
2017-03-26T08:24:18.099Z,1028.7
2017-03-26T08:25:40.548Z,1028.68
2017-03-26T08:27:02.409Z,1028.7
2017-03-26T08:28:24.698Z,1028.68
2017-03-26T08:29:46.537Z,1028.62
2017-03-26T08:31:08.834Z,1028.63
2017-03-26T08:32:31.045Z,1028.67
2017-03-26T08:33:53.464Z,1028.68
2017-03-26T08:35:15.616Z,1028.64
2017-03-26T08:36:38.092Z,1028.64
2017-03-26T08:38:00.000Z,1028.67
2017-03-26T08:39:21.791Z,1028.68
2017-03-26T08:40:43.652Z,1028.72
2017-03-26T08:42:05.487Z,1028.7
2017-03-26T08:43:26.994Z,1028.74
2017-03-26T08:44:49.636Z,1028.74
2017-03-26T08:46:11.490Z,1028.82
2017-03-26T08:47:33.936Z,1028.89
2017-03-26T08:48:55.813Z,1028.97
2017-03-26T08:50:18.273Z,1029
2017-03-26T08:51:40.434Z,1028.97
2017-03-26T08:53:02.903Z,1028.93
2017-03-26T08:54:25.369Z,1028.94
2017-03-26T08:55:47.540Z,1028.94
2017-03-26T08:57:10.095Z,1028.98
2017-03-26T08:58:32.246Z,1028.99
2017-03-26T08:59:54.863Z,1028.98
2017-03-26T09:01:18.998Z,1028.99
2017-03-26T09:02:41.215Z,1029.03
2017-03-26T09:04:03.404Z,1029.06
2017-03-26T09:05:25.615Z,1029.03
2017-03-26T09:06:48.014Z,1029.03
2017-03-26T09:08:09.827Z,1029.09
2017-03-26T09:09:31.974Z,1029.12
2017-03-26T09:10:54.431Z,1029.14
2017-03-26T09:12:16.886Z,1029.16
2017-03-26T09:13:39.048Z,1029.19
2017-03-26T09:15:00.895Z,1029.15
2017-03-26T09:16:22.715Z,1029.16
2017-03-26T09:17:44.864Z,1029.17
2017-03-26T09:19:07.327Z,1029.2
2017-03-26T09:20:29.816Z,1029.19
2017-03-26T09:21:52.044Z,1029.16
2017-03-26T09:23:14.644Z,1029.15
2017-03-26T09:24:36.329Z,1029.14
2017-03-26T09:25:58.842Z,1029.11
2017-03-26T09:27:20.687Z,1029.13
2017-03-26T09:28:43.654Z,1029.15
2017-03-26T09:30:05.592Z,1029.15
2017-03-26T09:31:27.420Z,1029.16
2017-03-26T09:32:49.874Z,1029.12
2017-03-26T09:34:12.677Z,1029.12
2017-03-26T09:35:35.352Z,1029.08
2017-03-26T09:36:57.168Z,1029.09
2017-03-26T09:38:18.398Z,1029.09
2017-03-26T09:39:41.107Z,1029.09
2017-03-26T09:41:03.321Z,1029.14
2017-03-26T09:42:25.408Z,1029.15
2017-03-26T09:43:47.989Z,1029.12
2017-03-26T09:45:12.145Z,1029.11
2017-03-26T09:46:34.043Z,1029.18
2017-03-26T09:47:56.516Z,1029.17
2017-03-26T09:49:18.986Z,1029.24
2017-03-26T09:50:41.450Z,1029.25
2017-03-26T09:52:03.910Z,1029.25
2017-03-26T09:53:26.064Z,1029.25
2017-03-26T09:54:47.903Z,1029.24
2017-03-26T09:56:10.643Z,1029.28
2017-03-26T09:57:33.234Z,1029.32
2017-03-26T09:58:54.424Z,1029.33
2017-03-26T10:00:16.967Z,1029.35
2017-03-26T10:01:39.717Z,1029.32
2017-03-26T10:03:02.083Z,1029.31
2017-03-26T10:04:24.537Z,1029.31
2017-03-26T10:05:46.704Z,1029.31
2017-03-26T10:07:08.844Z,1029.38
2017-03-26T10:08:31.009Z,1029.32
2017-03-26T10:09:53.166Z,1029.38
2017-03-26T10:11:15.735Z,1029.37
2017-03-26T10:12:38.067Z,1029.37
2017-03-26T10:14:00.249Z,1029.37
2017-03-26T10:15:22.515Z,1029.37
2017-03-26T10:16:44.162Z,1029.36
2017-03-26T10:18:06.967Z,1029.31
2017-03-26T10:19:29.140Z,1029.32
2017-03-26T10:20:51.310Z,1029.3
2017-03-26T10:22:13.484Z,1029.27
2017-03-26T10:23:35.997Z,1029.31
2017-03-26T10:24:58.486Z,1029.38
2017-03-26T10:26:21.072Z,1029.35
2017-03-26T10:27:43.229Z,1029.33
2017-03-26T10:29:05.378Z,1029.29
2017-03-26T10:30:27.523Z,1029.29
2017-03-26T10:31:49.339Z,1029.29
2017-03-26T10:33:11.521Z,1029.27
2017-03-26T10:34:33.679Z,1029.34
2017-03-26T10:36:27.502Z,1029.29
2017-03-26T10:37:49.046Z,1029.26
2017-03-26T10:39:11.213Z,1029.31
2017-03-26T10:40:33.962Z,1029.25
2017-03-26T10:41:56.100Z,1029.27
2017-03-26T10:43:17.626Z,1029.28
2017-03-26T10:44:40.408Z,1029.28
2017-03-26T10:46:02.922Z,1029.27
2017-03-26T10:47:25.465Z,1029.23
2017-03-26T10:48:47.394Z,1029.24
2017-03-26T10:50:10.125Z,1029.18
2017-03-26T10:51:32.308Z,1029.21
2017-03-26T10:52:54.156Z,1029.18
2017-03-26T10:54:15.355Z,1029.17
2017-03-26T10:55:37.983Z,1029.17
2017-03-26T10:56:59.912Z,1029.19
2017-03-26T10:58:21.557Z,1029.21
2017-03-26T10:59:44.044Z,1029.23
2017-03-26T11:01:06.845Z,1029.24
2017-03-26T11:02:29.316Z,1029.21
2017-03-26T11:03:52.065Z,1029.25
2017-03-26T11:05:14.569Z,1029.24
2017-03-26T11:06:37.035Z,1029.23
2017-03-26T11:07:58.884Z,1029.27
2017-03-26T11:09:21.357Z,1029.31
2017-03-26T11:10:43.506Z,1029.3
2017-03-26T11:12:06.330Z,1029.34
2017-03-26T11:13:27.850Z,1029.3
2017-03-26T11:14:49.674Z,1029.3
2017-03-26T11:16:12.166Z,1029.27
2017-03-26T11:17:34.298Z,1029.25
2017-03-26T11:18:55.835Z,1029.29
2017-03-26T11:20:17.690Z,1029.25
2017-03-26T11:21:39.860Z,1029.27
2017-03-26T11:23:01.671Z,1029.33
2017-03-26T11:24:23.891Z,1029.34
2017-03-26T11:25:46.482Z,1029.33
2017-03-26T11:27:08.962Z,1029.32
2017-03-26T11:28:31.187Z,1029.31
2017-03-26T11:29:53.795Z,1029.32
2017-03-26T11:31:15.960Z,1029.32
2017-03-26T11:32:38.436Z,1029.26
2017-03-26T11:34:33.198Z,1029.36
2017-03-26T11:35:55.473Z,1029.3
2017-03-26T11:37:16.679Z,1029.32
2017-03-26T11:38:39.582Z,1029.28
2017-03-26T11:40:01.531Z,1029.35
2017-03-26T11:41:23.699Z,1029.27
2017-03-26T11:42:45.271Z,1029.29
2017-03-26T11:44:07.723Z,1029.26
2017-03-26T11:45:29.549Z,1029.28
2017-03-26T11:46:52.045Z,1029.27
2017-03-26T11:48:13.899Z,1029.27
2017-03-26T11:49:36.676Z,1029.35
2017-03-26T11:50:58.895Z,1029.35
2017-03-26T11:52:21.469Z,1029.39
2017-03-26T11:53:43.648Z,1029.34
2017-03-26T11:55:06.415Z,1029.3
2017-03-26T11:56:28.875Z,1029.33
2017-03-26T11:57:50.814Z,1029.3
2017-03-26T11:59:13.381Z,1029.27
2017-03-26T12:00:36.243Z,1029.33
2017-03-26T12:01:58.398Z,1029.29
2017-03-26T12:03:20.545Z,1029.24
2017-03-26T12:04:43.087Z,1029.24
2017-03-26T12:06:05.962Z,1029.25
2017-03-26T12:07:28.116Z,1029.24
2017-03-26T12:08:50.310Z,1029.25
2017-03-26T12:10:12.466Z,1029.21
2017-03-26T12:11:35.231Z,1029.19
2017-03-26T12:12:57.704Z,1029.18
2017-03-26T12:14:20.357Z,1029.14
2017-03-26T12:15:43.032Z,1029.16
2017-03-26T12:17:05.495Z,1029.17
2017-03-26T12:18:27.693Z,1029.14
2017-03-26T12:19:50.290Z,1029.08
2017-03-26T12:21:13.149Z,1029.04
2017-03-26T12:22:36.054Z,1029.03
2017-03-26T12:23:58.706Z,1029.01
2017-03-26T12:25:20.866Z,1029.03
2017-03-26T12:26:43.077Z,1029.02
2017-03-26T12:28:06.321Z,1029.05
2017-03-26T12:29:29.279Z,1029.07
2017-03-26T12:30:51.485Z,1029.05
2017-03-26T12:32:13.804Z,1029.1
2017-03-26T12:33:36.470Z,1029.06
2017-03-26T12:34:59.022Z,1029.06
2017-03-26T12:36:20.908Z,1029.08
2017-03-26T12:37:43.072Z,1029.11
2017-03-26T12:39:06.004Z,1029.08
2017-03-26T12:40:28.254Z,1029.09
2017-03-26T12:41:50.745Z,1029.1
2017-03-26T12:43:12.904Z,1029.08
2017-03-26T12:44:35.445Z,1029.09
2017-03-26T12:45:57.638Z,1029.08
2017-03-26T12:47:20.201Z,1029.1
2017-03-26T12:48:42.364Z,1029.06
2017-03-26T12:50:04.948Z,1029.05
2017-03-26T12:51:27.227Z,1029.03
2017-03-26T12:52:49.393Z,1029.04
2017-03-26T12:54:11.238Z,1029.06
2017-03-26T12:55:33.799Z,1029.01
2017-03-26T12:56:55.685Z,1028.95
2017-03-26T12:58:17.831Z,1028.92
2017-03-26T12:59:40.006Z,1028.86
2017-03-26T13:01:02.299Z,1028.9
2017-03-26T13:02:24.757Z,1028.89
2017-03-26T13:03:47.256Z,1028.82
2017-03-26T13:05:09.425Z,1028.83
2017-03-26T13:06:31.986Z,1028.78
2017-03-26T13:07:54.455Z,1028.8
2017-03-26T13:09:16.947Z,1028.78
2017-03-26T13:10:39.503Z,1028.77
2017-03-26T13:12:01.937Z,1028.77
2017-03-26T13:13:24.472Z,1028.82
2017-03-26T13:14:46.001Z,1028.82
2017-03-26T13:16:08.175Z,1028.84
2017-03-26T13:17:30.614Z,1028.8
2017-03-26T13:18:52.478Z,1028.78
2017-03-26T13:20:14.409Z,1028.75
2017-03-26T13:21:36.896Z,1028.76
2017-03-26T13:22:59.128Z,1028.77
2017-03-26T13:24:21.315Z,1028.78
2017-03-26T13:25:43.457Z,1028.81
2017-03-26T13:27:05.300Z,1028.79
2017-03-26T13:28:27.196Z,1028.72
2017-03-26T13:29:49.760Z,1028.75
2017-03-26T13:31:14.271Z,1028.79
2017-03-26T13:32:36.806Z,1028.84
2017-03-26T13:33:59.610Z,1028.79
2017-03-26T13:35:22.340Z,1028.8
2017-03-26T13:36:44.846Z,1028.72
2017-03-26T13:38:07.303Z,1028.73
2017-03-26T13:39:30.152Z,1028.7
2017-03-26T13:40:52.033Z,1028.71
2017-03-26T13:42:13.855Z,1028.66
2017-03-26T13:43:36.005Z,1028.69
2017-03-26T13:44:58.405Z,1028.68
2017-03-26T13:46:20.886Z,1028.64
2017-03-26T13:47:43.067Z,1028.61
2017-03-26T13:49:05.035Z,1028.64
2017-03-26T13:50:27.868Z,1028.62
2017-03-26T13:51:49.718Z,1028.61
2017-03-26T13:53:12.174Z,1028.55
2017-03-26T13:54:34.675Z,1028.57
2017-03-26T13:55:57.328Z,1028.53
2017-03-26T13:57:19.491Z,1028.51
2017-03-26T13:58:41.369Z,1028.51
2017-03-26T14:00:03.926Z,1028.42
2017-03-26T14:01:26.805Z,1028.45
2017-03-26T14:02:49.249Z,1028.41
2017-03-26T14:04:43.424Z,1028.43
2017-03-26T14:06:05.905Z,1028.36
2017-03-26T14:07:27.965Z,1028.36
2017-03-26T14:08:50.493Z,1028.28
2017-03-26T14:10:12.383Z,1028.26
2017-03-26T14:11:34.878Z,1028.28
2017-03-26T14:12:57.019Z,1028.25
2017-03-26T14:14:19.256Z,1028.2
2017-03-26T14:15:40.983Z,1028.22
2017-03-26T14:17:03.285Z,1028.21
2017-03-26T14:18:25.413Z,1028.21
2017-03-26T14:19:47.224Z,1028.19
2017-03-26T14:21:09.757Z,1028.2
2017-03-26T14:22:32.187Z,1028.19
2017-03-26T14:23:54.781Z,1028.19
2017-03-26T14:25:16.616Z,1028.16
2017-03-26T14:26:38.754Z,1028.15
2017-03-26T14:28:01.287Z,1028.14
2017-03-26T14:29:23.837Z,1028.15
2017-03-26T14:30:45.763Z,1028.1
2017-03-26T14:32:07.015Z,1028.07
2017-03-26T14:33:29.763Z,1028.12
2017-03-26T14:34:52.227Z,1028.12
2017-03-26T14:36:14.434Z,1028.14
2017-03-26T14:37:36.412Z,1028.1
2017-03-26T14:38:58.543Z,1028.09
2017-03-26T14:40:20.402Z,1028.09
2017-03-26T14:41:42.280Z,1028.11
2017-03-26T14:43:04.448Z,1028.11
2017-03-26T14:44:27.274Z,1028.09
2017-03-26T14:45:49.843Z,1028.07
2017-03-26T14:47:12.547Z,1028.06
2017-03-26T14:48:35.088Z,1028.04
2017-03-26T14:49:57.609Z,1028
2017-03-26T14:51:19.927Z,1028.02
2017-03-26T14:52:42.137Z,1028.04
2017-03-26T14:54:05.071Z,1027.99
2017-03-26T14:55:27.959Z,1027.96
2017-03-26T14:56:50.373Z,1027.96
2017-03-26T14:58:13.414Z,1028
2017-03-26T14:59:36.001Z,1027.93
2017-03-26T15:00:58.447Z,1027.94
2017-03-26T15:02:20.639Z,1027.92
2017-03-26T15:03:42.513Z,1027.94
2017-03-26T15:05:04.818Z,1027.89
2017-03-26T15:06:27.623Z,1027.92
2017-03-26T15:07:50.127Z,1027.91
2017-03-26T15:09:12.633Z,1027.93
2017-03-26T15:10:34.848Z,1027.93
2017-03-26T15:11:57.603Z,1027.96
2017-03-26T15:13:19.466Z,1027.9
2017-03-26T15:14:41.661Z,1027.87
2017-03-26T15:16:03.871Z,1027.89
2017-03-26T15:17:26.322Z,1027.86
2017-03-26T15:18:48.163Z,1027.83
2017-03-26T15:20:10.029Z,1027.84
2017-03-26T15:21:32.197Z,1027.84
2017-03-26T15:22:55.025Z,1027.83
2017-03-26T15:24:17.205Z,1027.79
2017-03-26T15:25:39.470Z,1027.82
2017-03-26T15:27:01.004Z,1027.83
2017-03-26T15:28:23.553Z,1027.8
2017-03-26T15:29:45.717Z,1027.79
2017-03-26T15:31:08.334Z,1027.83
2017-03-26T15:32:30.174Z,1027.81
2017-03-26T15:33:52.378Z,1027.8
2017-03-26T15:35:14.518Z,1027.79
2017-03-26T15:36:37.052Z,1027.74
2017-03-26T15:38:00.482Z,1027.76
2017-03-26T15:39:23.093Z,1027.72
2017-03-26T15:40:45.582Z,1027.74
2017-03-26T15:42:07.743Z,1027.77
2017-03-26T15:43:29.903Z,1027.74
2017-03-26T15:44:52.425Z,1027.73
2017-03-26T15:46:14.919Z,1027.75
2017-03-26T15:47:37.424Z,1027.72
2017-03-26T15:48:59.275Z,1027.72
2017-03-26T15:50:21.466Z,1027.68
2017-03-26T15:51:43.640Z,1027.73
2017-03-26T15:53:06.093Z,1027.68
2017-03-26T15:54:28.595Z,1027.66
2017-03-26T15:55:50.739Z,1027.69
2017-03-26T15:57:13.045Z,1027.65
2017-03-26T15:58:35.311Z,1027.69
2017-03-26T15:59:57.171Z,1027.69
2017-03-26T16:01:19.593Z,1027.69
2017-03-26T16:02:41.517Z,1027.71
2017-03-26T16:04:04.069Z,1027.68
2017-03-26T16:05:26.343Z,1027.63
2017-03-26T16:06:48.562Z,1027.66
2017-03-26T16:08:10.714Z,1027.63
2017-03-26T16:09:32.977Z,1027.67
2017-03-26T16:10:55.615Z,1027.61
2017-03-26T16:12:18.404Z,1027.6
2017-03-26T16:13:40.577Z,1027.57
2017-03-26T16:15:03.045Z,1027.6
2017-03-26T16:16:25.202Z,1027.61
2017-03-26T16:17:47.498Z,1027.65
2017-03-26T16:19:09.375Z,1027.63
2017-03-26T16:20:30.593Z,1027.65
2017-03-26T16:21:52.436Z,1027.68
2017-03-26T16:23:15.243Z,1027.64
2017-03-26T16:24:37.510Z,1027.65
2017-03-26T16:25:59.666Z,1027.67
2017-03-26T16:27:21.954Z,1027.66
2017-03-26T16:28:44.437Z,1027.68
2017-03-26T16:30:06.426Z,1027.68
2017-03-26T16:31:28.617Z,1027.65
2017-03-26T16:32:51.094Z,1027.71
2017-03-26T16:34:13.874Z,1027.71
2017-03-26T16:35:36.425Z,1027.65
2017-03-26T16:36:58.888Z,1027.67
2017-03-26T16:38:21.186Z,1027.68
2017-03-26T16:39:44.138Z,1027.72